createdAt,value
2023-03-22T00:00:21.458Z,100713.68
2023-03-22T00:02:52.400Z,100714.43
2023-03-22T00:05:22.472Z,100708.42
2023-03-22T00:07:53.103Z,100705.64
2023-03-22T00:10:23.321Z,100700.91
2023-03-22T00:12:53.982Z,100697.79
2023-03-22T00:15:24.731Z,100697.23
2023-03-22T00:17:54.747Z,100695.98
2023-03-22T00:20:25.025Z,100694.23
2023-03-22T00:22:55.243Z,100697.84
2023-03-22T00:25:25.516Z,100693.06
2023-03-22T00:27:56.143Z,100691.78
2023-03-22T00:30:26.930Z,100687.90
2023-03-22T00:32:57.095Z,100690.04
2023-03-22T00:35:27.231Z,100684.81
2023-03-22T00:37:57.617Z,100685.51
2023-03-22T00:40:28.494Z,100680.09
2023-03-22T00:42:58.984Z,100682.92
2023-03-22T00:45:29.220Z,100678.56
2023-03-22T00:47:59.789Z,100673.47
2023-03-22T00:50:30.349Z,100672.80
2023-03-22T00:53:00.456Z,100669.65
2023-03-22T00:55:30.615Z,100668.55
2023-03-22T00:58:01.270Z,100669.11
2023-03-22T01:00:31.987Z,100668.48
2023-03-22T01:03:02.488Z,100671.73
2023-03-22T01:05:33.009Z,100664.82
2023-03-22T01:08:03.580Z,100668.43
2023-03-22T01:10:34.035Z,100669.38
2023-03-22T01:13:04.354Z,100668.61
2023-03-22T01:15:34.791Z,100666.67
2023-03-22T01:18:05.600Z,100663.44
2023-03-22T01:20:35.759Z,100664.92
2023-03-22T01:23:06.576Z,100663.12
2023-03-22T01:25:36.745Z,100661.02
2023-03-22T01:28:07.267Z,100659.84
2023-03-22T01:30:37.911Z,100660.84
2023-03-22T01:33:08.035Z,100659.69
2023-03-22T01:35:38.605Z,100659.71
2023-03-22T01:38:08.827Z,100657.10
2023-03-22T01:40:39.730Z,100651.41
2023-03-22T01:43:09.871Z,100651.49
2023-03-22T01:45:40.392Z,100650.77
2023-03-22T01:48:10.685Z,100650.19
2023-03-22T01:50:41.376Z,100645.05
2023-03-22T01:53:11.388Z,100641.84
2023-03-22T01:55:41.875Z,100639.02
2023-03-22T01:58:12.446Z,100632.90
2023-03-22T02:00:42.653Z,100628.98
2023-03-22T02:03:12.832Z,100624.94
2023-03-22T02:05:43.382Z,100621.35
2023-03-22T02:08:13.879Z,100616.67
2023-03-22T02:10:44.401Z,100617.04
2023-03-22T02:13:14.962Z,100614.34
2023-03-22T02:15:45.500Z,100610.47
2023-03-22T02:18:16.051Z,100605.68
2023-03-22T02:20:46.467Z,100601.24
2023-03-22T02:23:16.984Z,100596.47
2023-03-22T02:25:47.557Z,100593.88
2023-03-22T02:28:18.123Z,100592.19
2023-03-22T02:30:48.867Z,100585.72
2023-03-22T02:33:19.096Z,100583.86
2023-03-22T02:35:50.045Z,100581.70
2023-03-22T02:38:20.747Z,100578.31
2023-03-22T02:40:51.286Z,100574.47
2023-03-22T02:43:21.499Z,100570.53
2023-03-22T02:45:52.037Z,100567.70
2023-03-22T02:48:22.667Z,100568.05
2023-03-22T02:50:52.856Z,100570.53
2023-03-22T02:53:23.386Z,100568.13
2023-03-22T02:55:53.689Z,100569.35
2023-03-22T02:58:24.206Z,100566.12
2023-03-22T03:00:54.451Z,100564.63
2023-03-22T03:03:24.923Z,100560.38
2023-03-22T03:05:55.186Z,100560.25
2023-03-22T03:08:25.738Z,100557.92
2023-03-22T03:10:56.290Z,100554.54
2023-03-22T03:13:26.830Z,100550.67
2023-03-22T03:15:57.319Z,100552.70
2023-03-22T03:18:27.340Z,100545.36
2023-03-22T03:20:57.838Z,100542.45
2023-03-22T03:23:28.402Z,100546.41
2023-03-22T03:25:59.177Z,100543.74
2023-03-22T03:28:29.728Z,100540.26
2023-03-22T03:31:00.291Z,100535.98
2023-03-22T03:33:30.791Z,100533.01
2023-03-22T03:36:01.463Z,100528.73
2023-03-22T03:38:31.966Z,100521.58
2023-03-22T03:41:02.496Z,100527.38
2023-03-22T03:43:32.972Z,100524.56
2023-03-22T03:46:03.592Z,100526.06
2023-03-22T03:48:34.113Z,100519.01
2023-03-22T03:51:04.312Z,100514.54
2023-03-22T03:53:34.902Z,100515.04
2023-03-22T03:56:05.483Z,100512.03
2023-03-22T03:58:36.226Z,100511.44
2023-03-22T04:01:06.717Z,100511.44
2023-03-22T04:03:37.009Z,100515.17
2023-03-22T04:06:07.262Z,100519.25
2023-03-22T04:08:37.930Z,100514.42
2023-03-22T04:11:08.666Z,100514.60
2023-03-22T04:13:38.668Z,100515.43
2023-03-22T04:16:09.160Z,100508.16
2023-03-22T04:18:39.376Z,100501.32
2023-03-22T04:21:09.933Z,100503.90
2023-03-22T04:23:40.589Z,100499.96
2023-03-22T04:26:11.426Z,100497.05
2023-03-22T04:28:42.316Z,100494.83
2023-03-22T04:31:13.111Z,100489.02
2023-03-22T04:33:43.106Z,100489.07
2023-03-22T04:36:13.276Z,100483.55
2023-03-22T04:38:43.316Z,100483.44
2023-03-22T04:41:14.086Z,100476.50
2023-03-22T04:43:44.500Z,100477.09
2023-03-22T04:46:14.776Z,100475.90
2023-03-22T04:48:44.919Z,100477.21
2023-03-22T04:51:15.540Z,100470.41
2023-03-22T04:53:46.273Z,100472.77
2023-03-22T04:56:16.563Z,100470.33
2023-03-22T04:58:47.145Z,100467.66
2023-03-22T05:01:17.798Z,100467.87
2023-03-22T05:03:48.036Z,100470.36
2023-03-22T05:06:18.454Z,100467.01
2023-03-22T05:08:49.368Z,100464.32
2023-03-22T05:11:19.622Z,100459.31
2023-03-22T05:13:49.593Z,100466.02
2023-03-22T05:16:20.086Z,100465.60
2023-03-22T05:18:50.648Z,100467.24
2023-03-22T05:21:21.146Z,100463.77
2023-03-22T05:23:51.601Z,100455.93
2023-03-22T05:26:21.393Z,100454.96
2023-03-22T05:28:51.547Z,100451.36
2023-03-22T05:31:22.030Z,100450.99
2023-03-22T05:33:52.848Z,100444.40
2023-03-22T05:36:23.314Z,100446.20
2023-03-22T05:38:53.891Z,100440.84
2023-03-22T05:41:23.964Z,100444.84
2023-03-22T05:43:54.010Z,100444.62
2023-03-22T05:46:24.295Z,100442.47
2023-03-22T05:48:55.127Z,100440.67
2023-03-22T05:51:25.648Z,100443.30
2023-03-22T05:53:55.984Z,100445.22
2023-03-22T05:56:26.417Z,100444.02
2023-03-22T05:58:56.933Z,100437.01
2023-03-22T06:01:27.777Z,100439.23
2023-03-22T06:03:58.582Z,100435.17
2023-03-22T06:06:28.789Z,100430.62
2023-03-22T06:09:10.621Z,100429.08
2023-03-22T06:11:29.675Z,100433.09
2023-03-22T06:13:59.837Z,100438.40
2023-03-22T06:16:30.380Z,100435.22
2023-03-22T06:19:00.559Z,100427.03
2023-03-22T06:21:31.385Z,100426.25
2023-03-22T06:24:01.876Z,100425.70
2023-03-22T06:26:32.134Z,100422.77
2023-03-22T06:29:02.777Z,100422.03
2023-03-22T06:31:33.487Z,100415.74
2023-03-22T06:34:03.734Z,100420.60
2023-03-22T06:36:33.961Z,100419.28
2023-03-22T06:39:04.426Z,100423.66
2023-03-22T06:41:34.955Z,100418.99
2023-03-22T06:44:05.537Z,100417.39
2023-03-22T06:46:35.754Z,100412.84
2023-03-22T06:49:06.048Z,100421.03
2023-03-22T06:51:36.545Z,100417.97
2023-03-22T06:54:06.752Z,100413.27
2023-03-22T06:56:37.287Z,100415.90
2023-03-22T06:59:07.849Z,100415.55
2023-03-22T07:01:38.397Z,100415.03
2023-03-22T07:04:08.929Z,100412.17
2023-03-22T07:06:39.438Z,100407.62
2023-03-22T07:09:09.692Z,100409.87
2023-03-22T07:11:40.320Z,100409.93
2023-03-22T07:14:10.768Z,100394.94
2023-03-22T07:16:41.258Z,100398.43
2023-03-22T07:19:11.791Z,100400.26
2023-03-22T07:21:42.300Z,100404.73
2023-03-22T07:24:12.871Z,100404.69
2023-03-22T07:26:43.339Z,100405.80
2023-03-22T07:29:13.916Z,100404.46
2023-03-22T07:31:44.560Z,100400.23
2023-03-22T07:34:14.980Z,100390.03
2023-03-22T07:36:45.395Z,100385.44
2023-03-22T07:39:16.200Z,100372.98
2023-03-22T07:41:46.704Z,100377.34
2023-03-22T07:44:18.347Z,100380.60
2023-03-22T07:46:47.777Z,100386.73
2023-03-22T07:49:18.219Z,100374.32
2023-03-22T07:51:48.715Z,100373.87
2023-03-22T07:54:32.518Z,100384.16
2023-03-22T07:56:49.727Z,100377.74
2023-03-22T07:59:20.262Z,100376.58
2023-03-22T08:01:50.751Z,100387.58
2023-03-22T08:04:21.240Z,100391.17
2023-03-22T08:06:51.732Z,100384.11
2023-03-22T08:09:22.227Z,100392.85
2023-03-22T08:11:52.729Z,100399.93
2023-03-22T08:14:35.462Z,100401.51
2023-03-22T08:16:53.363Z,100397.34
2023-03-22T08:19:23.844Z,100400.62
2023-03-22T08:21:54.313Z,100396.49
2023-03-22T08:24:24.819Z,100389.23
2023-03-22T08:26:55.302Z,100390.31
2023-03-22T08:29:25.817Z,100398.76
2023-03-22T08:31:56.414Z,100389.91
2023-03-22T08:34:26.787Z,100397.36
2023-03-22T08:36:57.259Z,100393.17
2023-03-22T08:39:27.777Z,100392.96
2023-03-22T08:41:58.225Z,100394.57
2023-03-22T08:44:28.762Z,100382.71
2023-03-22T08:46:59.197Z,100382.94
2023-03-22T08:49:29.669Z,100379.42
2023-03-22T08:52:00.141Z,100385.89
2023-03-22T08:54:30.646Z,100391.00
2023-03-22T08:57:01.122Z,100395.68
2023-03-22T08:59:31.601Z,100393.78
2023-03-22T09:02:02.270Z,100393.04
2023-03-22T09:04:32.645Z,100402.07
2023-03-22T09:07:02.714Z,100394.28
2023-03-22T09:09:33.196Z,100392.74
2023-03-22T09:12:03.384Z,100398.37
2023-03-22T09:14:33.935Z,100393.88
2023-03-22T09:17:04.353Z,100393.06
2023-03-22T09:19:35.872Z,100399.23
2023-03-22T09:22:05.331Z,100391.23
2023-03-22T09:24:35.927Z,100397.31
2023-03-22T09:27:05.940Z,100394.69
2023-03-22T09:29:36.447Z,100391.12
2023-03-22T09:32:06.636Z,100386.45
2023-03-22T09:34:37.132Z,100382.79
2023-03-22T09:37:07.594Z,100388.50
2023-03-22T09:39:38.092Z,100381.14
2023-03-22T09:42:08.549Z,100387.62
2023-03-22T09:44:39.055Z,100373.96
2023-03-22T09:47:09.219Z,100361.61
2023-03-22T09:49:52.633Z,100362.96
2023-03-22T09:52:10.253Z,100361.64
2023-03-22T09:54:40.655Z,100355.76
2023-03-22T09:57:11.102Z,100355.08
2023-03-22T09:59:41.608Z,100355.23
2023-03-22T10:02:12.159Z,100354.09
2023-03-22T10:04:42.535Z,100354.72
2023-03-22T10:07:12.940Z,100351.05
2023-03-22T10:09:43.475Z,100344.58
2023-03-22T10:12:13.972Z,100348.29
2023-03-22T10:14:44.076Z,100347.16
2023-03-22T10:17:14.480Z,100358.79
2023-03-22T10:19:45.336Z,100339.53
2023-03-22T10:22:15.710Z,100360.01
2023-03-22T10:24:45.761Z,100354.28
2023-03-22T10:27:16.094Z,100350.19
2023-03-22T10:29:46.399Z,100356.33
2023-03-22T10:32:16.767Z,100353.49
2023-03-22T10:34:47.092Z,100358.28
2023-03-22T10:37:17.378Z,100350.39
2023-03-22T10:39:47.720Z,100354.66
2023-03-22T10:42:18.051Z,100355.93
2023-03-22T10:44:48.427Z,100358.90
2023-03-22T10:47:18.776Z,100360.02
2023-03-22T10:49:49.129Z,100358.39
2023-03-22T10:52:19.813Z,100362.32
2023-03-22T10:54:50.242Z,100366.19
2023-03-22T10:57:20.578Z,100354.39
2023-03-22T10:59:50.798Z,100359.21
2023-03-22T11:02:21.742Z,100361.35
2023-03-22T11:04:51.441Z,100361.89
2023-03-22T11:07:21.433Z,100360.91
2023-03-22T11:09:51.835Z,100358.46
2023-03-22T11:12:21.826Z,100365.72
2023-03-22T11:14:51.894Z,100366.06
2023-03-22T11:17:22.024Z,100369.93
2023-03-22T11:19:52.331Z,100370.37
2023-03-22T11:22:22.477Z,100369.09
2023-03-22T11:24:52.735Z,100374.61
2023-03-22T11:27:23.265Z,100375.97
2023-03-22T11:29:53.805Z,100374.34
2023-03-22T11:32:24.455Z,100379.60
2023-03-22T11:34:55.018Z,100382.94
2023-03-22T11:37:25.555Z,100383.61
2023-03-22T11:39:56.167Z,100382.52
2023-03-22T11:42:26.753Z,100380.81
2023-03-22T11:44:57.395Z,100382.44
2023-03-22T11:47:27.589Z,100377.91
2023-03-22T11:49:57.492Z,100372.73
2023-03-22T11:52:28.098Z,100370.21
2023-03-22T11:54:58.708Z,100365.47
2023-03-22T11:57:29.523Z,100362.39
2023-03-22T12:00:00.131Z,100366.02
2023-03-22T12:02:30.954Z,100366.84
2023-03-22T12:05:01.556Z,100365.63
2023-03-22T12:07:31.872Z,100365.88
2023-03-22T12:10:01.910Z,100359.83
2023-03-22T12:12:32.677Z,100358.05
2023-03-22T12:15:03.265Z,100363.11
2023-03-22T12:17:33.573Z,100363.32
2023-03-22T12:20:03.668Z,100360.44
2023-03-22T12:22:34.501Z,100361.51
2023-03-22T12:25:05.258Z,100359.99
2023-03-22T12:27:35.318Z,100367.96
2023-03-22T12:30:05.877Z,100369.34
2023-03-22T12:32:36.431Z,100368.92
2023-03-22T12:35:17.262Z,100364.80
2023-03-22T12:37:37.264Z,100346.13
2023-03-22T12:40:07.929Z,100345.54
2023-03-22T12:42:47.937Z,100339.95
2023-03-22T12:45:09.078Z,100328.21
2023-03-22T12:47:39.155Z,100325.71
2023-03-22T12:50:09.178Z,100337.62
2023-03-22T12:52:45.461Z,100339.25
2023-03-22T12:55:10.301Z,100349.96
2023-03-22T12:57:40.848Z,100352.72
2023-03-22T13:00:11.260Z,100368.86
2023-03-22T13:02:42.126Z,100360.95
2023-03-22T13:05:12.545Z,100364.71
2023-03-22T13:07:42.898Z,100366.06
2023-03-22T13:10:13.421Z,100373.52
2023-03-22T13:12:44.190Z,100372.70
2023-03-22T13:15:14.412Z,100371.83
2023-03-22T13:17:45.160Z,100379.72
2023-03-22T13:20:15.062Z,100381.97
2023-03-22T13:22:45.898Z,100380.87
2023-03-22T13:25:16.601Z,100381.75
2023-03-22T13:27:46.850Z,100376.95
2023-03-22T13:30:17.434Z,100383.91
2023-03-22T13:32:48.102Z,100385.77
2023-03-22T13:35:18.459Z,100382.00
2023-03-22T13:37:48.532Z,100380.97
2023-03-22T13:40:18.968Z,100378.73
2023-03-22T13:42:49.481Z,100380.57
2023-03-22T13:45:20.212Z,100382.61
2023-03-22T13:47:51.163Z,100383.33
2023-03-22T13:50:21.058Z,100385.78
2023-03-22T13:52:51.399Z,100382.08
2023-03-22T13:55:21.669Z,100378.43
2023-03-22T13:57:52.151Z,100380.82
2023-03-22T14:00:22.724Z,100374.19
2023-03-22T14:02:53.384Z,100376.11
2023-03-22T14:05:23.748Z,100376.76
2023-03-22T14:07:54.221Z,100377.91
2023-03-22T14:10:24.744Z,100379.68
2023-03-22T14:12:54.896Z,100379.58
2023-03-22T14:15:25.429Z,100377.83
2023-03-22T14:17:56.065Z,100375.18
2023-03-22T14:20:26.193Z,100382.07
2023-03-22T14:53:02.852Z,100384.27
2023-03-22T14:55:33.377Z,100382.59
2023-03-22T14:58:03.883Z,100383.69
2023-03-22T15:00:34.437Z,100379.64
2023-03-22T15:03:05.036Z,100380.32
2023-03-22T15:05:35.485Z,100381.13
2023-03-22T15:08:06.076Z,100376.18
2023-03-22T15:10:36.541Z,100379.27
2023-03-22T15:13:07.063Z,100373.81
2023-03-22T15:15:37.653Z,100374.05
2023-03-22T15:18:08.161Z,100366.20
2023-03-22T15:20:38.870Z,100357.03
2023-03-22T15:23:09.182Z,100354.63
2023-03-22T15:25:39.886Z,100351.25
2023-03-22T15:28:10.223Z,100347.97
2023-03-22T15:30:40.769Z,100347.77
2023-03-22T15:33:11.354Z,100344.95
2023-03-22T15:35:42.010Z,100336.04
2023-03-22T15:38:12.031Z,100328.66
2023-03-22T15:40:42.652Z,100324.19
2023-03-22T15:43:13.049Z,100318.55
2023-03-22T15:45:43.687Z,100326.66
2023-03-22T15:48:14.077Z,100334.41
2023-03-22T15:50:44.627Z,100335.09
2023-03-22T15:53:15.121Z,100332.28
2023-03-22T15:55:45.662Z,100332.55
2023-03-22T15:58:16.173Z,100335.36
2023-03-22T16:00:46.733Z,100333.97
2023-03-22T16:03:17.264Z,100333.15
2023-03-22T16:05:47.755Z,100332.03
2023-03-22T16:08:18.272Z,100330.14
2023-03-22T16:10:48.807Z,100331.88
2023-03-22T16:13:19.314Z,100337.13
2023-03-22T16:15:49.853Z,100334.80
2023-03-22T16:18:20.358Z,100331.11
2023-03-22T16:20:50.951Z,100330.28
2023-03-22T16:23:21.405Z,100324.70
2023-03-22T16:25:51.944Z,100328.65
2023-03-22T16:28:22.481Z,100328.73
2023-03-22T16:30:53.054Z,100329.23
2023-03-22T16:33:23.553Z,100331.07
2023-03-22T16:35:54.106Z,100327.04
2023-03-22T16:38:24.532Z,100328.26
2023-03-22T16:40:55.145Z,100322.52
2023-03-22T16:43:25.664Z,100325.38
2023-03-22T16:45:56.193Z,100320.93
2023-03-22T16:48:26.743Z,100323.24
2023-03-22T16:50:57.192Z,100325.04
2023-03-22T16:53:30.302Z,100327.75
2023-03-22T16:55:57.884Z,100330.49
2023-03-22T16:58:28.385Z,100328.51
2023-03-22T17:00:58.937Z,100323.96
2023-03-22T17:03:29.427Z,100321.57
2023-03-22T17:05:59.962Z,100319.30
2023-03-22T17:08:30.468Z,100315.00
2023-03-22T17:11:01.013Z,100304.90
2023-03-22T17:13:31.524Z,100299.46
2023-03-22T17:16:02.091Z,100294.00
2023-03-22T17:18:32.565Z,100284.52
2023-03-22T17:21:03.079Z,100289.02
2023-03-22T17:23:33.578Z,100292.55
2023-03-22T17:26:04.102Z,100292.22
2023-03-22T17:28:34.602Z,100302.48
2023-03-22T17:31:04.949Z,100300.50
2023-03-22T17:33:36.307Z,100302.21
2023-03-22T17:36:05.885Z,100301.43
2023-03-22T17:38:44.026Z,100299.52
2023-03-22T17:41:07.173Z,100302.06
2023-03-22T17:43:37.448Z,100297.78
2023-03-22T17:46:49.799Z,100298.40
2023-03-22T17:48:38.464Z,100302.71
2023-03-22T17:51:08.920Z,100292.60
2023-03-22T17:56:39.238Z,100288.36
2023-03-22T17:58:41.803Z,100288.39
2023-03-22T18:01:10.781Z,100287.89
2023-03-22T18:03:41.278Z,100283.42
2023-03-22T18:06:11.686Z,100283.19
2023-03-22T18:08:41.825Z,100276.96
2023-03-22T18:11:12.444Z,100272.10
2023-03-22T18:13:44.419Z,100275.70
2023-03-22T18:16:13.400Z,100279.38
2023-03-22T18:18:43.868Z,100281.77
2023-03-22T18:21:14.391Z,100280.67
2023-03-22T18:23:44.990Z,100288.93
2023-03-22T18:26:25.665Z,100290.03
2023-03-22T18:28:45.931Z,100290.87
2023-03-22T18:31:16.532Z,100295.01
2023-03-22T18:33:46.960Z,100294.13
2023-03-22T18:36:17.517Z,100296.51
2023-03-22T18:39:26.827Z,100292.94
2023-03-22T18:41:37.649Z,100293.85
2023-03-22T18:43:49.125Z,100294.67
2023-03-22T18:46:19.775Z,100292.04
2023-03-22T18:48:50.088Z,100292.84
2023-03-22T18:51:21.758Z,100292.63
2023-03-22T18:53:52.102Z,100296.60
2023-03-22T18:56:21.680Z,100289.36
2023-03-22T18:58:52.193Z,100288.14
2023-03-22T19:01:22.788Z,100281.27
2023-03-22T19:03:53.549Z,100280.08
2023-03-22T19:06:24.096Z,100287.94
2023-03-22T19:08:54.638Z,100284.10
2023-03-22T19:11:24.923Z,100282.76
2023-03-22T19:14:35.905Z,100275.14
2023-03-22T19:16:25.688Z,100275.25
2023-03-22T19:18:56.212Z,100280.04
2023-03-22T19:21:32.358Z,100269.66
2023-03-22T19:23:57.082Z,100271.68
2023-03-22T19:26:27.955Z,100275.07
2023-03-22T19:28:58.093Z,100275.92
2023-03-22T19:31:28.643Z,100281.28
2023-03-22T19:33:59.142Z,100262.70
2023-03-22T19:36:29.675Z,100251.96
2023-03-22T19:39:00.186Z,100250.40
2023-03-22T19:44:03.417Z,100236.93
2023-03-22T19:46:32.220Z,100242.14
2023-03-22T19:49:01.778Z,100232.87
2023-03-22T19:51:32.275Z,100224.42
2023-03-22T19:54:24.215Z,100226.30
2023-03-22T19:56:33.370Z,100226.98
2023-03-22T19:59:03.904Z,100218.93
2023-03-22T20:01:34.493Z,100214.65
2023-03-22T20:04:05.279Z,100210.56
2023-03-22T20:06:36.617Z,100221.10
2023-03-22T20:09:06.088Z,100218.73
2023-03-22T20:11:43.351Z,100211.47
2023-03-22T20:14:06.826Z,100200.87
2023-03-22T20:16:37.408Z,100199.24
2023-03-22T20:19:07.547Z,100202.31
2023-03-22T20:21:38.167Z,100201.40
2023-03-22T20:24:08.685Z,100205.23
2023-03-22T20:26:39.312Z,100207.93
2023-03-22T20:29:09.713Z,100210.96
2023-03-22T20:31:40.257Z,100208.44
2023-03-22T20:34:10.741Z,100200.73
2023-03-22T20:36:41.300Z,100201.05
2023-03-22T20:39:11.746Z,100198.18
2023-03-22T20:41:42.265Z,100196.90
2023-03-22T20:44:12.759Z,100187.60
2023-03-22T20:46:43.287Z,100182.15
2023-03-22T20:49:13.860Z,100182.78
2023-03-22T20:51:44.271Z,100188.80
2023-03-22T20:54:14.765Z,100187.25
2023-03-22T20:56:45.277Z,100191.62
2023-03-22T20:59:15.791Z,100194.92
2023-03-22T21:01:46.350Z,100200.00
2023-03-22T21:04:16.936Z,100202.07
2023-03-22T21:06:47.412Z,100208.90
2023-03-22T21:09:17.932Z,100204.45
2023-03-22T21:11:48.485Z,100196.30
2023-03-22T21:14:18.752Z,100194.61
2023-03-22T21:16:49.302Z,100192.00
2023-03-22T21:19:19.787Z,100194.61
2023-03-22T21:21:54.031Z,100190.34
2023-03-22T21:24:20.853Z,100191.49
2023-03-22T21:26:51.407Z,100190.37
2023-03-22T21:29:21.934Z,100188.65
2023-03-22T21:31:52.501Z,100182.04
2023-03-22T21:34:23.110Z,100180.81
2023-03-22T21:36:53.521Z,100177.06
2023-03-22T21:39:24.013Z,100171.44
2023-03-22T21:41:54.565Z,100170.81
2023-03-22T21:44:25.049Z,100166.82
2023-03-22T21:46:55.656Z,100163.94
2023-03-22T21:49:26.096Z,100166.23
2023-03-22T21:51:56.699Z,100161.02
2023-03-22T21:54:26.808Z,100155.25
2023-03-22T21:56:57.455Z,100158.79
2023-03-22T21:59:27.873Z,100147.85
2023-03-22T22:01:57.959Z,100132.85
2023-03-22T22:04:28.648Z,100133.85
2023-03-22T22:06:59.193Z,100129.30
2023-03-22T22:09:29.709Z,100112.92
2023-03-22T22:12:00.325Z,100112.11
2023-03-22T22:14:30.762Z,100113.19
2023-03-22T22:17:01.393Z,100106.61
2023-03-22T22:19:31.825Z,100089.50
2023-03-22T22:22:02.439Z,100126.30
2023-03-22T22:24:32.959Z,100123.45
2023-03-22T22:27:03.490Z,100098.73
2023-03-22T22:29:33.721Z,100081.49
2023-03-22T22:32:04.289Z,100077.27
2023-03-22T22:34:34.787Z,100067.78
2023-03-22T22:37:05.363Z,100083.87
2023-03-22T22:39:35.941Z,100068.68
2023-03-22T22:42:06.446Z,100089.16
2023-03-22T22:44:37.565Z,100106.86
2023-03-22T22:47:07.196Z,100106.50
2023-03-22T22:49:37.698Z,100103.63
2023-03-22T22:52:07.989Z,100108.59
2023-03-22T22:54:38.483Z,100102.51
2023-03-22T22:57:09.020Z,100091.17
2023-03-22T22:59:39.544Z,100099.40
2023-03-22T23:02:09.900Z,100102.24
2023-03-22T23:04:40.333Z,100094.23
2023-03-22T23:07:10.881Z,100091.96
2023-03-22T23:09:41.401Z,100080.78
2023-03-22T23:12:11.948Z,100087.25
2023-03-22T23:14:42.470Z,100082.27
2023-03-22T23:17:13.024Z,100073.03
2023-03-22T23:19:43.185Z,100081.40
2023-03-22T23:22:13.729Z,100076.21
2023-03-22T23:24:44.234Z,100072.39
2023-03-22T23:27:14.546Z,100070.90
2023-03-22T23:29:45.034Z,100071.12
2023-03-22T23:32:15.588Z,100065.67
2023-03-22T23:34:46.092Z,100057.83
2023-03-22T23:37:16.795Z,100059.51
2023-03-22T23:39:47.148Z,100052.75
2023-03-22T23:42:17.694Z,100048.50
2023-03-22T23:44:47.928Z,100047.69
2023-03-22T23:47:18.484Z,100043.31
2023-03-22T23:49:48.991Z,100036.41
2023-03-22T23:52:19.516Z,100037.39
2023-03-22T23:54:50.024Z,100033.45
2023-03-22T23:57:20.602Z,100034.63
2023-03-22T23:59:51.097Z,100031.43
